METAR Data
IDs: Format: Raw Decoded Include TAF

Data at: 0813 UTC 23 Oct 2018

METAR for:KFDY (Findlay Arpt, OH, US)
Text:KFDY 230753Z AUTO 25007KT 10SM CLR 08/04 A3002 RMK AO2 SLP162 T00780044
Temperature: 7.8°C ( 46°F)
Dewpoint: 4.4°C ( 40°F) [RH = 79%]
Pressure (altimeter):30.02 inches Hg (1016.7 mb) [Sea level pressure: 1016.2 mb]
Winds:from the WSW (250 degrees) at 8 MPH (7 knots; 3.6 m/s)
Visibility:10 or more sm (16+ km)
Ceiling:at least 12,000 feet AGL
Clouds:sky clear below 12,000 feet AGL
QC Flag:automated observation with no human augmentation